Wendy C — WYB6131 — position and weather

sailwx.info

Track history (hours):
 
Tides and Currents Weather Stations Pressure Air Temp Water Temp Dewpoint Dewpoint Depression Visibility Wind Speed Wind Dir Waves Ship Positions

Wendy C

Owner: Harbor Towing & Fleeting, Inc., Metairie, LA. More information available from US FCC via Universal Licensing System and Coast Guard Vessel Documentation Center.

Last reported at 2015-Jul-04 13:29 UTC. Time now 2015-Jul-04 13:39 UTC.
Position N 29°58' W 090°02'.

Length 19 m; draft 3 m.

Type: Towing. MMSI: 366160126.

Date/timePositionNaut miles runAvg speedWind from/ knotsBaromVisibWave heightAir tempDewpointWater temp
2015-Jul-04 13:29N 29°58' W 090°02'2 1.8
2015-Jul-04 12:21N 29°60' W 090°00'2 2.8
2015-Jul-04 11:31N 29°58' W 090°02'2 1.5
2015-Jul-04 10:19N 29°56' W 090°00'2 1.9
2015-Jul-04 09:18N 29°58' W 090°02'1 1.7
2015-Jul-04 08:30N 29°59' W 090°01'1 1.2
2015-Jul-04 07:26N 29°60' W 089°60'2 2.0
2015-Jul-04 06:33N 29°59' W 090°01'2 1.6
2015-Jul-04 05:33N 29°57' W 090°01'1 1.0
2015-Jul-04 04:33N 29°56' W 090°00'0 0.0
2015-Jul-04 03:32N 29°56' W 090°00'0 0.0
2015-Jul-04 02:33N 29°56' W 090°00'0 0.0
2015-Jul-04 01:33N 29°56' W 090°00'0 0.0
2015-Jul-04 00:32N 29°56' W 090°00'0 0.0
2015-Jul-03 23:31N 29°56' W 090°00'0 0.0
2015-Jul-03 22:33N 29°56' W 090°00'3 2.5
2015-Jul-03 21:33N 29°59' W 090°01'2 1.6
2015-Jul-03 20:33N 29°60' W 090°00'0 0.4
2015-Jul-03 19:25N 29°60' W 090°01'3 1.2
2015-Jul-03 17:18N 29°57' W 090°01'1 0.1
2015-Jul-03 04:14N 29°56' W 090°00'0 0.2
2015-Jul-03 03:30N 29°56' W 090°00'0 0.0
2015-Jul-03 00:13N 29°56' W 090°00'2 0.3
2015-Jul-02 18:17N 29°58' W 090°02'1 0.7
2015-Jul-02 17:21N 29°58' W 090°02'1 1.3
2015-Jul-02 16:28N 29°59' W 090°01'2 1.7
2015-Jul-02 15:30N 29°60' W 089°59'3 2.5
2015-Jul-02 14:21N 29°58' W 090°02'1 1.4
2015-Jul-02 13:32N 29°57' W 090°01'1 1.1
2015-Jul-02 12:25N 29°56' W 089°60'0 0.0
2015-Jul-02 11:28N 29°56' W 089°60'2 1.8
2015-Jul-02 10:23N 29°57' W 090°02'1 1.1
2015-Jul-02 09:33N 29°58' W 090°02'2 1.6
2015-Jul-02 08:27N 29°60' W 090°01'2 2.4
2015-Jul-02 07:31N 29°58' W 090°02'1 0.7
2015-Jul-02 06:33N 29°58' W 090°02'1 0.8
2015-Jul-02 05:32N 29°58' W 090°02'0 0.0
2015-Jul-02 04:28N 29°58' W 090°02'1 1.5
2015-Jul-02 03:33N 29°57' W 090°01'1 0.6
2015-Jul-02 02:33N 29°56' W 090°00'0 0.0
2015-Jul-02 01:31N 29°56' W 090°00'0 0.0
2015-Jul-02 00:32N 29°56' W 090°00'0 0.0
2015-Jul-01 22:14N 29°56' W 090°00'0 0.0
2015-Jul-01 21:31N 29°56' W 090°00'0 0.0
2015-Jul-01 20:32N 29°56' W 090°00'2 1.8
2015-Jul-01 19:25N 29°58' W 090°02'2 2.0
2015-Jul-01 18:33N 29°60' W 090°01'0 0.3
2015-Jul-01 17:27N 29°59' W 090°01'0 0.0
2015-Jul-01 16:33N 29°59' W 090°01'1 0.9
2015-Jul-01 15:32N 29°60' W 090°00'1 0.9
2015-Jul-01 14:33N 29°59' W 090°01'2 1.8
2015-Jul-01 13:32N 29°58' W 090°02'2 1.7
2015-Jul-01 12:33N 29°56' W 090°00'2 1.9
2015-Jul-01 11:30N 29°55' W 089°58'1 0.3
2015-Jul-01 09:04N 29°55' W 089°58'4 8.2
2015-Jul-01 08:33N 29°58' W 090°02'0 0.4
2015-Jul-01 07:32N 29°58' W 090°02'3 2.3
2015-Jul-01 06:20N 29°60' W 089°59'5 6.3
2015-Jul-01 05:33N 30°01' W 089°54'0 0.0
2015-Jul-01 04:32N 30°01' W 089°54'7 6.6
2015-Jul-01 03:29N 29°59' W 090°01'0 0.0
2015-Jun-30 12:22N 29°59' W 090°01'7 2.5
2015-Jun-30 09:30N 30°01' W 089°53'6 5.5
2015-Jun-30 08:28N 29°60' W 089°59'3 2.2
2015-Jun-30 07:08N 29°58' W 090°02'0 0.6
2015-Jun-30 06:25N 29°57' W 090°01'1 1.0
2015-Jun-30 05:33N 29°58' W 090°02'0 0.5
2015-Jun-30 04:31N 29°57' W 090°02'1 1.0
2015-Jun-30 03:32N 29°58' W 090°02'0 0.0
2015-Jun-30 02:29N 29°58' W 090°02'1 1.4
2015-Jun-30 01:27N 29°60' W 090°01'3 2.5
2015-Jun-30 00:06N 29°56' W 090°00'0 0.0
2015-Jun-29 23:06N 29°56' W 090°00'0 0.0
2015-Jun-29 22:30N 29°56' W 090°00'0 0.0
2015-Jun-29 21:29N 29°56' W 090°00'0 0.0
2015-Jun-29 20:31N 29°56' W 090°00'0 0.0
2015-Jun-29 19:28N 29°56' W 090°00'0 0.0
2015-Jun-29 18:31N 29°56' W 090°00'0 0.0
2015-Jun-29 17:30N 29°56' W 090°00'0 0.0
2015-Jun-29 16:31N 29°56' W 090°00'0 0.0
2015-Jun-29 15:32N 29°56' W 090°00'0 0.0
2015-Jun-29 12:12N 29°56' W 090°00'0 0.0
2015-Jun-29 11:32N 29°56' W 090°00'1 0.7
2015-Jun-29 10:32N 29°56' W 089°60'1 0.0
2015-Jun-28 18:23N 29°56' W 090°00'0 0.0
2015-Jun-28 17:19N 29°56' W 090°00'0 0.0
2015-Jun-28 16:30N 29°56' W 090°00'3 0.2
2015-Jun-28 02:29N 29°59' W 090°01'0 0.0
2015-Jun-28 00:21N 29°59' W 090°01'2 0.6
2015-Jun-27 20:32N 29°57' W 090°02'2 1.7
2015-Jun-27 19:32N 29°56' W 090°00'0 0.0
2015-Jun-27 18:24N 29°56' W 090°00'2 0.5
2015-Jun-27 14:23N 29°58' W 090°02'2 1.4
2015-Jun-27 13:13N 29°59' W 090°01'7 3.7
2015-Jun-27 11:26N 30°01' W 089°54'2 2.3
2015-Jun-27 10:26N 30°00' W 089°56'5 5.7
2015-Jun-27 09:30N 29°58' W 090°02'1 0.6
2015-Jun-27 08:33N 29°57' W 090°01'2 1.4
2015-Jun-27 07:31N 29°56' W 090°00'0 0.0
2015-Jun-27 06:32N 29°56' W 090°00'0 0.0
2015-Jun-27 05:31N 29°56' W 090°00'0 0.0
2015-Jun-27 04:33N 29°56' W 090°00'0 0.0
2015-Jun-27 03:33N 29°56' W 090°00'0 0.0
2015-Jun-27 02:33N 29°56' W 090°00'0 0.0
2015-Jun-27 01:30N 29°56' W 090°00'0 0.0
2015-Jun-27 00:33N 29°56' W 090°00'0 0.0
2015-Jun-26 23:30N 29°56' W 090°00'0 0.0
2015-Jun-26 22:30N 29°56' W 090°00'0 0.0
2015-Jun-26 21:26N 29°56' W 090°00'0 0.0
2015-Jun-26 20:32N 29°56' W 090°00'0 0.0
2015-Jun-26 19:32N 29°56' W 090°00'2 0.1
2015-Jun-26 02:13N 29°58' W 090°02'1 0.2
2015-Jun-25 23:04N 29°58' W 090°02'2 1.0
2015-Jun-25 21:07N 29°56' W 090°00'0 0.0
2015-Jun-25 20:33N 29°56' W 090°00'0 0.0
2015-Jun-25 19:21N 29°56' W 090°00'0 0.0
2015-Jun-25 18:29N 29°56' W 090°00'0 0.0
2015-Jun-25 17:33N 29°56' W 090°00'0 0.0
2015-Jun-25 16:23N 29°56' W 090°00'0 0.0
2015-Jun-25 15:30N 29°56' W 090°00'0 0.0
2015-Jun-25 14:32N 29°56' W 090°00'0 0.0
2015-Jun-25 13:32N 29°56' W 090°00'0 0.0
2015-Jun-25 12:31N 29°56' W 090°00'0 0.0
2015-Jun-25 11:32N 29°56' W 090°00'3 3.1
2015-Jun-25 10:31N 29°59' W 090°01'1 1.1
2015-Jun-25 09:33N 29°60' W 089°60'2 2.4
2015-Jun-25 08:33N 29°58' W 090°02'0 0.3
2015-Jun-25 07:27N 29°58' W 090°02'0 0.2
2015-Jun-25 06:33N 29°57' W 090°02'1 0.6
2015-Jun-25 05:33N 29°58' W 090°02'1 0.9
2015-Jun-25 04:32N 29°58' W 090°02'1 1.2
2015-Jun-25 03:32N 29°59' W 090°01'1 1.1
2015-Jun-25 02:33N 29°58' W 090°02'2 1.9
2015-Jun-25 01:29N 29°56' W 090°00'0 0.0
2015-Jun-25 00:33N 29°56' W 090°00'0 0.0
2015-Jun-24 23:30N 29°56' W 090°00'0 0.0
2015-Jun-24 22:28N 29°56' W 090°00'  
Track history (hours):
 
Tides and Currents Weather Stations Pressure Air Temp Water Temp Dewpoint Dewpoint Depression Visibility Wind Speed Wind Dir Waves Ship Positions

Wendy C

Owner: Harbor Towing & Fleeting, Inc., Metairie, LA. More information available from US FCC via Universal Licensing System and Coast Guard Vessel Documentation Center.

Last reported at 2015-Jul-04 13:29 UTC. Time now 2015-Jul-04 13:39 UTC.
Position N 29°58' W 090°02'.

Length 19 m; draft 3 m.

Type: Towing. MMSI: 366160126.

Date/timePositionNaut miles runAvg speedWind from/ knotsBaromVisibWave heightAir tempDewpointWater temp
2015-Jul-04 13:29N 29°58' W 090°02'2 1.8
2015-Jul-04 12:21N 29°60' W 090°00'2 2.8
2015-Jul-04 11:31N 29°58' W 090°02'2 1.5
2015-Jul-04 10:19N 29°56' W 090°00'2 1.9
2015-Jul-04 09:18N 29°58' W 090°02'1 1.7
2015-Jul-04 08:30N 29°59' W 090°01'1 1.2
2015-Jul-04 07:26N 29°60' W 089°60'2 2.0
2015-Jul-04 06:33N 29°59' W 090°01'2 1.6
2015-Jul-04 05:33N 29°57' W 090°01'1 1.0
2015-Jul-04 04:33N 29°56' W 090°00'0 0.0
2015-Jul-04 03:32N 29°56' W 090°00'0 0.0
2015-Jul-04 02:33N 29°56' W 090°00'0 0.0
2015-Jul-04 01:33N 29°56' W 090°00'0 0.0
2015-Jul-04 00:32N 29°56' W 090°00'0 0.0
2015-Jul-03 23:31N 29°56' W 090°00'0 0.0
2015-Jul-03 22:33N 29°56' W 090°00'3 2.5
2015-Jul-03 21:33N 29°59' W 090°01'2 1.6
2015-Jul-03 20:33N 29°60' W 090°00'0 0.4
2015-Jul-03 19:25N 29°60' W 090°01'3 1.2
2015-Jul-03 17:18N 29°57' W 090°01'1 0.1
2015-Jul-03 04:14N 29°56' W 090°00'0 0.2
2015-Jul-03 03:30N 29°56' W 090°00'0 0.0
2015-Jul-03 00:13N 29°56' W 090°00'2 0.3
2015-Jul-02 18:17N 29°58' W 090°02'1 0.7
2015-Jul-02 17:21N 29°58' W 090°02'1 1.3
2015-Jul-02 16:28N 29°59' W 090°01'2 1.7
2015-Jul-02 15:30N 29°60' W 089°59'3 2.5
2015-Jul-02 14:21N 29°58' W 090°02'1 1.4
2015-Jul-02 13:32N 29°57' W 090°01'1 1.1
2015-Jul-02 12:25N 29°56' W 089°60'0 0.0
2015-Jul-02 11:28N 29°56' W 089°60'2 1.8
2015-Jul-02 10:23N 29°57' W 090°02'1 1.1
2015-Jul-02 09:33N 29°58' W 090°02'2 1.6
2015-Jul-02 08:27N 29°60' W 090°01'2 2.4
2015-Jul-02 07:31N 29°58' W 090°02'1 0.7
2015-Jul-02 06:33N 29°58' W 090°02'1 0.8
2015-Jul-02 05:32N 29°58' W 090°02'0 0.0
2015-Jul-02 04:28N 29°58' W 090°02'1 1.5
2015-Jul-02 03:33N 29°57' W 090°01'1 0.6
2015-Jul-02 02:33N 29°56' W 090°00'0 0.0
2015-Jul-02 01:31N 29°56' W 090°00'0 0.0
2015-Jul-02 00:32N 29°56' W 090°00'0 0.0
2015-Jul-01 22:14N 29°56' W 090°00'0 0.0
2015-Jul-01 21:31N 29°56' W 090°00'0 0.0
2015-Jul-01 20:32N 29°56' W 090°00'2 1.8
2015-Jul-01 19:25N 29°58' W 090°02'2 2.0
2015-Jul-01 18:33N 29°60' W 090°01'0 0.3
2015-Jul-01 17:27N 29°59' W 090°01'0 0.0
2015-Jul-01 16:33N 29°59' W 090°01'1 0.9
2015-Jul-01 15:32N 29°60' W 090°00'1 0.9
2015-Jul-01 14:33N 29°59' W 090°01'2 1.8
2015-Jul-01 13:32N 29°58' W 090°02'2 1.7
2015-Jul-01 12:33N 29°56' W 090°00'2 1.9
2015-Jul-01 11:30N 29°55' W 089°58'1 0.3
2015-Jul-01 09:04N 29°55' W 089°58'4 8.2
2015-Jul-01 08:33N 29°58' W 090°02'0 0.4
2015-Jul-01 07:32N 29°58' W 090°02'3 2.3
2015-Jul-01 06:20N 29°60' W 089°59'5 6.3
2015-Jul-01 05:33N 30°01' W 089°54'0 0.0
2015-Jul-01 04:32N 30°01' W 089°54'7 6.6
2015-Jul-01 03:29N 29°59' W 090°01'0 0.0
2015-Jun-30 12:22N 29°59' W 090°01'7 2.5
2015-Jun-30 09:30N 30°01' W 089°53'6 5.5
2015-Jun-30 08:28N 29°60' W 089°59'3 2.2
2015-Jun-30 07:08N 29°58' W 090°02'0 0.6
2015-Jun-30 06:25N 29°57' W 090°01'1 1.0
2015-Jun-30 05:33N 29°58' W 090°02'0 0.5
2015-Jun-30 04:31N 29°57' W 090°02'1 1.0
2015-Jun-30 03:32N 29°58' W 090°02'0 0.0
2015-Jun-30 02:29N 29°58' W 090°02'1 1.4
2015-Jun-30 01:27N 29°60' W 090°01'3 2.5
2015-Jun-30 00:06N 29°56' W 090°00'0 0.0
2015-Jun-29 23:06N 29°56' W 090°00'0 0.0
2015-Jun-29 22:30N 29°56' W 090°00'0 0.0
2015-Jun-29 21:29N 29°56' W 090°00'0 0.0
2015-Jun-29 20:31N 29°56' W 090°00'0 0.0
2015-Jun-29 19:28N 29°56' W 090°00'0 0.0
2015-Jun-29 18:31N 29°56' W 090°00'0 0.0
2015-Jun-29 17:30N 29°56' W 090°00'0 0.0
2015-Jun-29 16:31N 29°56' W 090°00'0 0.0
2015-Jun-29 15:32N 29°56' W 090°00'0 0.0
2015-Jun-29 12:12N 29°56' W 090°00'0 0.0
2015-Jun-29 11:32N 29°56' W 090°00'1 0.7
2015-Jun-29 10:32N 29°56' W 089°60'1 0.0
2015-Jun-28 18:23N 29°56' W 090°00'0 0.0
2015-Jun-28 17:19N 29°56' W 090°00'0 0.0
2015-Jun-28 16:30N 29°56' W 090°00'3 0.2
2015-Jun-28 02:29N 29°59' W 090°01'0 0.0
2015-Jun-28 00:21N 29°59' W 090°01'2 0.6
2015-Jun-27 20:32N 29°57' W 090°02'2 1.7
2015-Jun-27 19:32N 29°56' W 090°00'0 0.0
2015-Jun-27 18:24N 29°56' W 090°00'2 0.5
2015-Jun-27 14:23N 29°58' W 090°02'2 1.4
2015-Jun-27 13:13N 29°59' W 090°01'7 3.7
2015-Jun-27 11:26N 30°01' W 089°54'2 2.3
2015-Jun-27 10:26N 30°00' W 089°56'5 5.7
2015-Jun-27 09:30N 29°58' W 090°02'1 0.6
2015-Jun-27 08:33N 29°57' W 090°01'2 1.4
2015-Jun-27 07:31N 29°56' W 090°00'0 0.0
2015-Jun-27 06:32N 29°56' W 090°00'0 0.0
2015-Jun-27 05:31N 29°56' W 090°00'0 0.0
2015-Jun-27 04:33N 29°56' W 090°00'0 0.0
2015-Jun-27 03:33N 29°56' W 090°00'0 0.0
2015-Jun-27 02:33N 29°56' W 090°00'0 0.0
2015-Jun-27 01:30N 29°56' W 090°00'0 0.0
2015-Jun-27 00:33N 29°56' W 090°00'0 0.0
2015-Jun-26 23:30N 29°56' W 090°00'0 0.0
2015-Jun-26 22:30N 29°56' W 090°00'0 0.0
2015-Jun-26 21:26N 29°56' W 090°00'0 0.0
2015-Jun-26 20:32N 29°56' W 090°00'0 0.0
2015-Jun-26 19:32N 29°56' W 090°00'2 0.1
2015-Jun-26 02:13N 29°58' W 090°02'1 0.2
2015-Jun-25 23:04N 29°58' W 090°02'2 1.0
2015-Jun-25 21:07N 29°56' W 090°00'0 0.0
2015-Jun-25 20:33N 29°56' W 090°00'0 0.0
2015-Jun-25 19:21N 29°56' W 090°00'0 0.0
2015-Jun-25 18:29N 29°56' W 090°00'0 0.0
2015-Jun-25 17:33N 29°56' W 090°00'0 0.0
2015-Jun-25 16:23N 29°56' W 090°00'0 0.0
2015-Jun-25 15:30N 29°56' W 090°00'0 0.0
2015-Jun-25 14:32N 29°56' W 090°00'0 0.0
2015-Jun-25 13:32N 29°56' W 090°00'0 0.0
2015-Jun-25 12:31N 29°56' W 090°00'0 0.0
2015-Jun-25 11:32N 29°56' W 090°00'3 3.1
2015-Jun-25 10:31N 29°59' W 090°01'1 1.1
2015-Jun-25 09:33N 29°60' W 089°60'2 2.4
2015-Jun-25 08:33N 29°58' W 090°02'0 0.3
2015-Jun-25 07:27N 29°58' W 090°02'0 0.2
2015-Jun-25 06:33N 29°57' W 090°02'1 0.6
2015-Jun-25 05:33N 29°58' W 090°02'1 0.9
2015-Jun-25 04:32N 29°58' W 090°02'1 1.2
2015-Jun-25 03:32N 29°59' W 090°01'1 1.1
2015-Jun-25 02:33N 29°58' W 090°02'2 1.9
2015-Jun-25 01:29N 29°56' W 090°00'0 0.0
2015-Jun-25 00:33N 29°56' W 090°00'0 0.0
2015-Jun-24 23:30N 29°56' W 090°00'0 0.0
2015-Jun-24 22:28N 29°56' W 090°00'  

Dump ship's entire track history